sensor_id;sensor_type;location;lat;lon;timestamp;temperature;humidity
16229;DHT22;8222;51.462;12.630;2023-03-11T00:00:20;3.40;99.90
16229;DHT22;8222;51.462;12.630;2023-03-11T00:02:49;3.30;99.90
16229;DHT22;8222;51.462;12.630;2023-03-11T00:05:18;3.30;99.90
16229;DHT22;8222;51.462;12.630;2023-03-11T00:07:43;3.30;99.90
16229;DHT22;8222;51.462;12.630;2023-03-11T00:10:18;3.20;99.90
16229;DHT22;8222;51.462;12.630;2023-03-11T00:12:44;3.10;99.90
16229;DHT22;8222;51.462;12.630;2023-03-11T00:15:11;3.20;99.90
16229;DHT22;8222;51.462;12.630;2023-03-11T00:17:37;3.10;99.90
16229;DHT22;8222;51.462;12.630;2023-03-11T00:20:04;3.00;99.90
16229;DHT22;8222;51.462;12.630;2023-03-11T00:22:31;3.00;99.90
16229;DHT22;8222;51.462;12.630;2023-03-11T00:24:57;2.90;99.90
16229;DHT22;8222;51.462;12.630;2023-03-11T00:27:23;2.90;99.90
16229;DHT22;8222;51.462;12.630;2023-03-11T00:29:51;2.90;99.90
16229;DHT22;8222;51.462;12.630;2023-03-11T00:32:17;2.90;99.90
16229;DHT22;8222;51.462;12.630;2023-03-11T00:34:42;2.90;99.90
16229;DHT22;8222;51.462;12.630;2023-03-11T00:37:08;3.20;99.90
16229;DHT22;8222;51.462;12.630;2023-03-11T00:39:34;2.80;99.90
16229;DHT22;8222;51.462;12.630;2023-03-11T00:41:59;2.90;99.90
16229;DHT22;8222;51.462;12.630;2023-03-11T00:44:25;2.90;99.90
16229;DHT22;8222;51.462;12.630;2023-03-11T00:46:51;2.90;99.90
16229;DHT22;8222;51.462;12.630;2023-03-11T00:49:16;2.90;99.90
16229;DHT22;8222;51.462;12.630;2023-03-11T00:51:42;3.00;99.90
16229;DHT22;8222;51.462;12.630;2023-03-11T00:54:09;2.90;99.90
16229;DHT22;8222;51.462;12.630;2023-03-11T00:56:34;2.90;99.90
16229;DHT22;8222;51.462;12.630;2023-03-11T00:59:02;2.90;99.90
16229;DHT22;8222;51.462;12.630;2023-03-11T01:01:27;2.90;99.90
16229;DHT22;8222;51.462;12.630;2023-03-11T01:03:53;2.80;99.90
16229;DHT22;8222;51.462;12.630;2023-03-11T01:06:19;2.80;99.90
16229;DHT22;8222;51.462;12.630;2023-03-11T01:08:46;3.10;99.90
16229;DHT22;8222;51.462;12.630;2023-03-11T01:11:12;2.60;99.90
16229;DHT22;8222;51.462;12.630;2023-03-11T01:13:38;2.60;99.90
16229;DHT22;8222;51.462;12.630;2023-03-11T01:16:06;3.30;99.90
16229;DHT22;8222;51.462;12.630;2023-03-11T01:18:33;2.60;99.90
16229;DHT22;8222;51.462;12.630;2023-03-11T01:20:59;2.60;99.90
16229;DHT22;8222;51.462;12.630;2023-03-11T01:23:25;2.70;99.90
16229;DHT22;8222;51.462;12.630;2023-03-11T01:25:53;2.70;99.90
16229;DHT22;8222;51.462;12.630;2023-03-11T01:28:18;2.70;99.90
16229;DHT22;8222;51.462;12.630;2023-03-11T01:30:44;2.60;99.90
16229;DHT22;8222;51.462;12.630;2023-03-11T01:33:15;2.60;99.90
16229;DHT22;8222;51.462;12.630;2023-03-11T01:35:41;2.60;99.90
16229;DHT22;8222;51.462;12.630;2023-03-11T01:38:08;3.10;99.90
16229;DHT22;8222;51.462;12.630;2023-03-11T01:40:41;2.50;99.90
16229;DHT22;8222;51.462;12.630;2023-03-11T01:46:35;2.50;99.90
16229;DHT22;8222;51.462;12.630;2023-03-11T01:49:04;2.40;99.90
16229;DHT22;8222;51.462;12.630;2023-03-11T01:51:37;2.40;99.90
16229;DHT22;8222;51.462;12.630;2023-03-11T01:54:07;2.40;99.90
16229;DHT22;8222;51.462;12.630;2023-03-11T01:56:35;2.40;99.90
16229;DHT22;8222;51.462;12.630;2023-03-11T01:59:01;2.50;99.90
16229;DHT22;8222;51.462;12.630;2023-03-11T02:01:27;2.40;99.90
16229;DHT22;8222;51.462;12.630;2023-03-11T02:03:54;2.30;99.90
16229;DHT22;8222;51.462;12.630;2023-03-11T02:06:22;2.90;99.90
16229;DHT22;8222;51.462;12.630;2023-03-11T02:08:48;2.30;99.90
16229;DHT22;8222;51.462;12.630;2023-03-11T02:11:20;2.30;99.90
16229;DHT22;8222;51.462;12.630;2023-03-11T02:13:49;2.20;99.90
16229;DHT22;8222;51.462;12.630;2023-03-11T02:16:15;2.20;99.90
16229;DHT22;8222;51.462;12.630;2023-03-11T02:18:42;2.40;99.90
16229;DHT22;8222;51.462;12.630;2023-03-11T02:21:22;2.80;99.90
16229;DHT22;8222;51.462;12.630;2023-03-11T02:27:02;2.30;99.90
16229;DHT22;8222;51.462;12.630;2023-03-11T02:29:31;2.30;99.90
16229;DHT22;8222;51.462;12.630;2023-03-11T02:32:00;2.30;99.90
16229;DHT22;8222;51.462;12.630;2023-03-11T02:34:29;2.30;99.90
16229;DHT22;8222;51.462;12.630;2023-03-11T02:36:55;2.20;99.90
16229;DHT22;8222;51.462;12.630;2023-03-11T02:39:36;3.00;99.90
16229;DHT22;8222;51.462;12.630;2023-03-11T02:44:41;2.10;99.90
16229;DHT22;8222;51.462;12.630;2023-03-11T02:47:08;2.20;99.90
16229;DHT22;8222;51.462;12.630;2023-03-11T02:49:34;2.10;99.90
16229;DHT22;8222;51.462;12.630;2023-03-11T02:52:01;2.10;99.90
16229;DHT22;8222;51.462;12.630;2023-03-11T02:54:27;2.20;99.90
16229;DHT22;8222;51.462;12.630;2023-03-11T02:56:52;2.10;99.90
16229;DHT22;8222;51.462;12.630;2023-03-11T02:59:18;2.10;99.90
16229;DHT22;8222;51.462;12.630;2023-03-11T03:01:45;2.20;99.90
16229;DHT22;8222;51.462;12.630;2023-03-11T03:04:11;2.10;99.90
16229;DHT22;8222;51.462;12.630;2023-03-11T03:06:37;2.20;99.90
16229;DHT22;8222;51.462;12.630;2023-03-11T03:09:03;2.10;99.90
16229;DHT22;8222;51.462;12.630;2023-03-11T03:11:31;2.20;99.90
16229;DHT22;8222;51.462;12.630;2023-03-11T03:13:56;2.20;99.90
16229;DHT22;8222;51.462;12.630;2023-03-11T03:16:22;2.20;99.90
16229;DHT22;8222;51.462;12.630;2023-03-11T03:18:48;2.30;99.90
16229;DHT22;8222;51.462;12.630;2023-03-11T03:21:13;2.20;99.90
16229;DHT22;8222;51.462;12.630;2023-03-11T03:23:39;2.10;99.90
16229;DHT22;8222;51.462;12.630;2023-03-11T03:26:05;2.10;99.90
16229;DHT22;8222;51.462;12.630;2023-03-11T03:28:31;2.10;99.90
16229;DHT22;8222;51.462;12.630;2023-03-11T03:31:03;2.20;99.90
16229;DHT22;8222;51.462;12.630;2023-03-11T03:33:30;2.10;99.90
16229;DHT22;8222;51.462;12.630;2023-03-11T03:35:55;2.20;99.90
16229;DHT22;8222;51.462;12.630;2023-03-11T03:38:23;3.20;99.90
16229;DHT22;8222;51.462;12.630;2023-03-11T03:40:48;2.30;99.90
16229;DHT22;8222;51.462;12.630;2023-03-11T03:43:16;2.20;99.90
16229;DHT22;8222;51.462;12.630;2023-03-11T03:45:41;3.10;99.90
16229;DHT22;8222;51.462;12.630;2023-03-11T03:48:07;2.20;99.90
16229;DHT22;8222;51.462;12.630;2023-03-11T03:50:33;2.20;99.90
16229;DHT22;8222;51.462;12.630;2023-03-11T03:52:58;2.20;99.90
16229;DHT22;8222;51.462;12.630;2023-03-11T03:55:24;2.20;99.90
16229;DHT22;8222;51.462;12.630;2023-03-11T03:57:50;2.20;99.90
16229;DHT22;8222;51.462;12.630;2023-03-11T04:00:16;2.10;99.90
16229;DHT22;8222;51.462;12.630;2023-03-11T04:02:41;2.10;99.90
16229;DHT22;8222;51.462;12.630;2023-03-11T04:05:09;2.30;99.90
16229;DHT22;8222;51.462;12.630;2023-03-11T04:07:35;2.20;99.90
16229;DHT22;8222;51.462;12.630;2023-03-11T04:10:01;2.20;99.90
16229;DHT22;8222;51.462;12.630;2023-03-11T04:12:27;2.20;99.90
16229;DHT22;8222;51.462;12.630;2023-03-11T04:14:53;2.20;99.90
16229;DHT22;8222;51.462;12.630;2023-03-11T04:17:19;2.20;99.90
16229;DHT22;8222;51.462;12.630;2023-03-11T04:19:44;2.20;99.90
16229;DHT22;8222;51.462;12.630;2023-03-11T04:22:10;2.10;99.90
16229;DHT22;8222;51.462;12.630;2023-03-11T04:24:35;2.20;99.90
16229;DHT22;8222;51.462;12.630;2023-03-11T04:27:01;2.10;99.90
16229;DHT22;8222;51.462;12.630;2023-03-11T04:29:27;2.20;99.90
16229;DHT22;8222;51.462;12.630;2023-03-11T04:31:52;2.20;99.90
16229;DHT22;8222;51.462;12.630;2023-03-11T04:34:18;2.30;99.90
16229;DHT22;8222;51.462;12.630;2023-03-11T04:36:44;2.30;99.90
16229;DHT22;8222;51.462;12.630;2023-03-11T04:39:10;2.30;99.90
16229;DHT22;8222;51.462;12.630;2023-03-11T04:41:36;2.20;99.90
16229;DHT22;8222;51.462;12.630;2023-03-11T04:44:04;3.00;99.90
16229;DHT22;8222;51.462;12.630;2023-03-11T04:46:30;2.20;99.90
16229;DHT22;8222;51.462;12.630;2023-03-11T04:48:55;2.30;99.90
16229;DHT22;8222;51.462;12.630;2023-03-11T04:51:21;2.20;99.90
16229;DHT22;8222;51.462;12.630;2023-03-11T04:53:48;2.20;99.90
16229;DHT22;8222;51.462;12.630;2023-03-11T04:56:16;2.20;99.90
16229;DHT22;8222;51.462;12.630;2023-03-11T04:58:41;2.30;99.90
16229;DHT22;8222;51.462;12.630;2023-03-11T05:01:07;2.30;99.90
16229;DHT22;8222;51.462;12.630;2023-03-11T05:03:33;2.30;99.90
16229;DHT22;8222;51.462;12.630;2023-03-11T05:05:58;2.30;99.90
16229;DHT22;8222;51.462;12.630;2023-03-11T05:08:26;2.30;99.90
16229;DHT22;8222;51.462;12.630;2023-03-11T05:10:51;2.20;99.90
16229;DHT22;8222;51.462;12.630;2023-03-11T05:13:18;2.20;99.90
16229;DHT22;8222;51.462;12.630;2023-03-11T05:15:45;2.30;99.90
16229;DHT22;8222;51.462;12.630;2023-03-11T05:18:11;2.30;99.90
16229;DHT22;8222;51.462;12.630;2023-03-11T05:20:36;2.30;99.90
16229;DHT22;8222;51.462;12.630;2023-03-11T05:23:03;2.30;99.90
16229;DHT22;8222;51.462;12.630;2023-03-11T05:25:30;2.30;99.90
16229;DHT22;8222;51.462;12.630;2023-03-11T05:27:56;2.30;99.90
16229;DHT22;8222;51.462;12.630;2023-03-11T05:30:22;2.50;99.90
16229;DHT22;8222;51.462;12.630;2023-03-11T05:32:48;2.40;99.90
16229;DHT22;8222;51.462;12.630;2023-03-11T05:35:14;2.40;99.90
16229;DHT22;8222;51.462;12.630;2023-03-11T05:37:41;2.50;99.90
16229;DHT22;8222;51.462;12.630;2023-03-11T05:40:09;2.40;99.90
16229;DHT22;8222;51.462;12.630;2023-03-11T05:42:35;2.40;99.90
16229;DHT22;8222;51.462;12.630;2023-03-11T05:45:01;3.10;99.90
16229;DHT22;8222;51.462;12.630;2023-03-11T05:47:28;2.40;99.90
16229;DHT22;8222;51.462;12.630;2023-03-11T05:49:54;2.50;99.90
16229;DHT22;8222;51.462;12.630;2023-03-11T05:52:20;2.50;99.90
16229;DHT22;8222;51.462;12.630;2023-03-11T05:54:49;2.40;99.90
16229;DHT22;8222;51.462;12.630;2023-03-11T05:57:16;2.40;99.90
16229;DHT22;8222;51.462;12.630;2023-03-11T05:59:44;3.20;99.90
16229;DHT22;8222;51.462;12.630;2023-03-11T06:02:12;2.50;99.90
16229;DHT22;8222;51.462;12.630;2023-03-11T06:04:38;2.40;99.90
16229;DHT22;8222;51.462;12.630;2023-03-11T06:07:04;2.50;99.90
16229;DHT22;8222;51.462;12.630;2023-03-11T06:09:29;2.50;99.90
16229;DHT22;8222;51.462;12.630;2023-03-11T06:11:55;2.60;99.90
16229;DHT22;8222;51.462;12.630;2023-03-11T06:14:21;2.40;99.90
16229;DHT22;8222;51.462;12.630;2023-03-11T06:16:48;2.60;99.90
16229;DHT22;8222;51.462;12.630;2023-03-11T06:19:14;2.80;99.90
16229;DHT22;8222;51.462;12.630;2023-03-11T06:21:40;2.60;99.90
16229;DHT22;8222;51.462;12.630;2023-03-11T06:24:06;3.50;99.90
16229;DHT22;8222;51.462;12.630;2023-03-11T06:26:31;2.60;99.90
16229;DHT22;8222;51.462;12.630;2023-03-11T06:28:57;2.80;99.90
16229;DHT22;8222;51.462;12.630;2023-03-11T06:31:25;2.70;99.90
16229;DHT22;8222;51.462;12.630;2023-03-11T06:33:53;2.70;99.90
16229;DHT22;8222;51.462;12.630;2023-03-11T06:36:21;2.70;99.90
16229;DHT22;8222;51.462;12.630;2023-03-11T06:38:47;2.70;99.90
16229;DHT22;8222;51.462;12.630;2023-03-11T06:41:15;2.60;99.90
16229;DHT22;8222;51.462;12.630;2023-03-11T06:43:41;2.60;99.90
16229;DHT22;8222;51.462;12.630;2023-03-11T06:46:13;2.60;99.90
16229;DHT22;8222;51.462;12.630;2023-03-11T06:48:39;2.60;99.90
16229;DHT22;8222;51.462;12.630;2023-03-11T06:51:05;2.60;99.90
16229;DHT22;8222;51.462;12.630;2023-03-11T06:53:33;2.60;99.90
16229;DHT22;8222;51.462;12.630;2023-03-11T06:56:09;2.70;99.90
16229;DHT22;8222;51.462;12.630;2023-03-11T06:58:37;2.70;99.90
16229;DHT22;8222;51.462;12.630;2023-03-11T07:01:06;2.80;99.90
16229;DHT22;8222;51.462;12.630;2023-03-11T07:03:32;2.70;99.90
16229;DHT22;8222;51.462;12.630;2023-03-11T07:05:58;2.70;99.90
16229;DHT22;8222;51.462;12.630;2023-03-11T07:08:24;3.00;99.90
16229;DHT22;8222;51.462;12.630;2023-03-11T07:13:28;2.80;99.90
16229;DHT22;8222;51.462;12.630;2023-03-11T07:16:06;2.80;99.90
16229;DHT22;8222;51.462;12.630;2023-03-11T07:18:32;2.70;99.90
16229;DHT22;8222;51.462;12.630;2023-03-11T07:21:03;2.80;99.90
16229;DHT22;8222;51.462;12.630;2023-03-11T07:23:29;2.70;99.90
16229;DHT22;8222;51.462;12.630;2023-03-11T07:25:55;2.70;99.90
16229;DHT22;8222;51.462;12.630;2023-03-11T07:28:22;3.50;99.90
16229;DHT22;8222;51.462;12.630;2023-03-11T07:30:47;2.70;99.90
16229;DHT22;8222;51.462;12.630;2023-03-11T07:33:14;2.80;99.90
16229;DHT22;8222;51.462;12.630;2023-03-11T07:35:39;2.50;99.90
16229;DHT22;8222;51.462;12.630;2023-03-11T07:38:05;2.90;99.90
16229;DHT22;8222;51.462;12.630;2023-03-11T07:40:33;2.80;99.90
16229;DHT22;8222;51.462;12.630;2023-03-11T07:43:00;2.70;99.90
16229;DHT22;8222;51.462;12.630;2023-03-11T07:45:26;2.90;99.90
16229;DHT22;8222;51.462;12.630;2023-03-11T07:47:51;3.10;99.90
16229;DHT22;8222;51.462;12.630;2023-03-11T07:50:17;2.90;99.90
16229;DHT22;8222;51.462;12.630;2023-03-11T07:52:43;2.90;99.90
16229;DHT22;8222;51.462;12.630;2023-03-11T07:55:09;2.90;99.90
16229;DHT22;8222;51.462;12.630;2023-03-11T07:57:35;2.90;99.90
16229;DHT22;8222;51.462;12.630;2023-03-11T08:00:01;2.90;99.90
16229;DHT22;8222;51.462;12.630;2023-03-11T08:02:26;2.90;99.90
16229;DHT22;8222;51.462;12.630;2023-03-11T08:04:54;3.00;99.90
16229;DHT22;8222;51.462;12.630;2023-03-11T08:07:20;3.00;99.90
16229;DHT22;8222;51.462;12.630;2023-03-11T08:09:45;2.90;99.90
16229;DHT22;8222;51.462;12.630;2023-03-11T08:12:11;3.00;99.90
16229;DHT22;8222;51.462;12.630;2023-03-11T08:14:37;3.20;99.90
16229;DHT22;8222;51.462;12.630;2023-03-11T08:17:04;3.20;99.90
16229;DHT22;8222;51.462;12.630;2023-03-11T08:19:29;3.40;99.90
16229;DHT22;8222;51.462;12.630;2023-03-11T08:21:55;3.50;99.90
16229;DHT22;8222;51.462;12.630;2023-03-11T08:24:21;3.70;99.90
16229;DHT22;8222;51.462;12.630;2023-03-11T08:26:48;3.50;99.90
16229;DHT22;8222;51.462;12.630;2023-03-11T08:29:14;4.00;99.90
16229;DHT22;8222;51.462;12.630;2023-03-11T08:31:39;3.60;99.90
16229;DHT22;8222;51.462;12.630;2023-03-11T08:34:10;3.60;99.90
16229;DHT22;8222;51.462;12.630;2023-03-11T08:36:35;3.60;99.90
16229;DHT22;8222;51.462;12.630;2023-03-11T08:39:01;3.80;99.90
16229;DHT22;8222;51.462;12.630;2023-03-11T08:41:29;3.70;99.90
16229;DHT22;8222;51.462;12.630;2023-03-11T08:43:54;3.50;99.90
16229;DHT22;8222;51.462;12.630;2023-03-11T08:49:06;3.70;99.90
16229;DHT22;8222;51.462;12.630;2023-03-11T08:51:33;3.60;99.90
16229;DHT22;8222;51.462;12.630;2023-03-11T08:54:00;3.70;99.90
16229;DHT22;8222;51.462;12.630;2023-03-11T08:56:26;3.50;99.90
16229;DHT22;8222;51.462;12.630;2023-03-11T08:58:51;3.50;99.90
16229;DHT22;8222;51.462;12.630;2023-03-11T09:01:17;3.40;99.90
16229;DHT22;8222;51.462;12.630;2023-03-11T09:03:44;3.30;99.90
16229;DHT22;8222;51.462;12.630;2023-03-11T09:06:12;3.40;99.90
16229;DHT22;8222;51.462;12.630;2023-03-11T09:08:40;3.70;99.90
16229;DHT22;8222;51.462;12.630;2023-03-11T09:11:06;4.40;99.90
16229;DHT22;8222;51.462;12.630;2023-03-11T09:13:32;3.80;99.90
16229;DHT22;8222;51.462;12.630;2023-03-11T09:15:57;3.80;99.90
16229;DHT22;8222;51.462;12.630;2023-03-11T09:18:23;3.90;99.90
16229;DHT22;8222;51.462;12.630;2023-03-11T09:20:49;3.90;99.90
16229;DHT22;8222;51.462;12.630;2023-03-11T09:23:16;4.10;99.90
16229;DHT22;8222;51.462;12.630;2023-03-11T09:25:42;4.20;99.90
16229;DHT22;8222;51.462;12.630;2023-03-11T09:28:07;4.20;99.90
16229;DHT22;8222;51.462;12.630;2023-03-11T09:30:33;4.40;99.90
16229;DHT22;8222;51.462;12.630;2023-03-11T09:33:00;4.30;99.90
16229;DHT22;8222;51.462;12.630;2023-03-11T09:35:26;4.10;99.90
16229;DHT22;8222;51.462;12.630;2023-03-11T09:37:51;4.20;99.90
16229;DHT22;8222;51.462;12.630;2023-03-11T09:40:20;4.00;99.90
16229;DHT22;8222;51.462;12.630;2023-03-11T09:54:37;4.50;99.90
16229;DHT22;8222;51.462;12.630;2023-03-11T09:57:04;4.70;99.90
16229;DHT22;8222;51.462;12.630;2023-03-11T09:59:32;4.90;99.90
16229;DHT22;8222;51.462;12.630;2023-03-11T10:01:58;5.40;99.90
16229;DHT22;8222;51.462;12.630;2023-03-11T10:04:38;4.90;99.90
16229;DHT22;8222;51.462;12.630;2023-03-11T10:07:14;4.70;99.90
16229;DHT22;8222;51.462;12.630;2023-03-11T10:09:53;4.70;99.90
16229;DHT22;8222;51.462;12.630;2023-03-11T10:18:09;4.70;99.90
16229;DHT22;8222;51.462;12.630;2023-03-11T10:20:50;4.80;99.90
16229;DHT22;8222;51.462;12.630;2023-03-11T10:26:41;5.20;99.90
16229;DHT22;8222;51.462;12.630;2023-03-11T10:29:28;5.00;99.90
16229;DHT22;8222;51.462;12.630;2023-03-11T10:31:59;5.00;99.90
16229;DHT22;8222;51.462;12.630;2023-03-11T10:34:35;5.00;99.90
16229;DHT22;8222;51.462;12.630;2023-03-11T10:37:23;5.40;99.90
16229;DHT22;8222;51.462;12.630;2023-03-11T10:39:49;5.00;99.90
16229;DHT22;8222;51.462;12.630;2023-03-11T10:42:19;4.80;99.90
16229;DHT22;8222;51.462;12.630;2023-03-11T10:44:46;5.30;99.90
16229;DHT22;8222;51.462;12.630;2023-03-11T10:47:23;5.10;99.90
16229;DHT22;8222;51.462;12.630;2023-03-11T10:49:50;5.30;99.90
16229;DHT22;8222;51.462;12.630;2023-03-11T10:52:17;5.30;99.90
16229;DHT22;8222;51.462;12.630;2023-03-11T10:54:46;5.70;99.90
16229;DHT22;8222;51.462;12.630;2023-03-11T10:59:49;6.80;99.90
16229;DHT22;8222;51.462;12.630;2023-03-11T11:02:48;5.70;99.90
16229;DHT22;8222;51.462;12.630;2023-03-11T11:07:41;5.70;99.90
16229;DHT22;8222;51.462;12.630;2023-03-11T11:10:22;6.00;99.90
16229;DHT22;8222;51.462;12.630;2023-03-11T11:17:47;6.60;99.90
16229;DHT22;8222;51.462;12.630;2023-03-11T11:20:17;6.40;99.90
16229;DHT22;8222;51.462;12.630;2023-03-11T11:23:02;6.20;99.90
16229;DHT22;8222;51.462;12.630;2023-03-11T11:25:54;5.80;99.90
16229;DHT22;8222;51.462;12.630;2023-03-11T11:28:21;5.60;99.90
16229;DHT22;8222;51.462;12.630;2023-03-11T11:31:18;5.60;99.90
16229;DHT22;8222;51.462;12.630;2023-03-11T11:33:50;5.70;99.90
16229;DHT22;8222;51.462;12.630;2023-03-11T11:36:17;5.50;99.90
16229;DHT22;8222;51.462;12.630;2023-03-11T11:38:43;5.70;99.90
16229;DHT22;8222;51.462;12.630;2023-03-11T11:41:14;5.70;99.90
16229;DHT22;8222;51.462;12.630;2023-03-11T11:43:55;5.30;99.90
16229;DHT22;8222;51.462;12.630;2023-03-11T11:46:33;5.10;99.90
16229;DHT22;8222;51.462;12.630;2023-03-11T11:49:16;4.90;99.90
16229;DHT22;8222;51.462;12.630;2023-03-11T11:51:45;4.80;99.90
16229;DHT22;8222;51.462;12.630;2023-03-11T11:56:58;4.70;99.90
16229;DHT22;8222;51.462;12.630;2023-03-11T11:59:25;4.70;99.90
16229;DHT22;8222;51.462;12.630;2023-03-11T12:04:45;5.00;99.90
16229;DHT22;8222;51.462;12.630;2023-03-11T12:15:45;5.10;99.90
16229;DHT22;8222;51.462;12.630;2023-03-11T12:26:41;5.30;99.90
16229;DHT22;8222;51.462;12.630;2023-03-11T12:29:42;5.80;99.90
16229;DHT22;8222;51.462;12.630;2023-03-11T12:32:22;5.70;99.90
16229;DHT22;8222;51.462;12.630;2023-03-11T12:34:49;5.80;99.90
16229;DHT22;8222;51.462;12.630;2023-03-11T12:37:18;6.20;99.90
16229;DHT22;8222;51.462;12.630;2023-03-11T12:39:45;5.60;99.90
16229;DHT22;8222;51.462;12.630;2023-03-11T12:42:19;5.50;99.90
16229;DHT22;8222;51.462;12.630;2023-03-11T12:44:46;5.50;99.90
16229;DHT22;8222;51.462;12.630;2023-03-11T12:49:46;5.20;99.90
16229;DHT22;8222;51.462;12.630;2023-03-11T12:54:47;5.30;99.90
16229;DHT22;8222;51.462;12.630;2023-03-11T13:00:10;5.20;99.90
16229;DHT22;8222;51.462;12.630;2023-03-11T13:03:13;5.20;99.90
16229;DHT22;8222;51.462;12.630;2023-03-11T13:05:58;5.10;99.90
16229;DHT22;8222;51.462;12.630;2023-03-11T13:08:36;5.20;99.90
16229;DHT22;8222;51.462;12.630;2023-03-11T13:13:51;5.30;99.90
16229;DHT22;8222;51.462;12.630;2023-03-11T13:18:48;5.70;99.90
16229;DHT22;8222;51.462;12.630;2023-03-11T13:26:55;5.60;99.90
16229;DHT22;8222;51.462;12.630;2023-03-11T13:32:52;5.60;99.90
16229;DHT22;8222;51.462;12.630;2023-03-11T13:35:39;5.90;99.90
16229;DHT22;8222;51.462;12.630;2023-03-11T13:38:32;5.90;99.90
16229;DHT22;8222;51.462;12.630;2023-03-11T13:41:02;5.90;99.90
16229;DHT22;8222;51.462;12.630;2023-03-11T13:43:28;5.70;99.90
16229;DHT22;8222;51.462;12.630;2023-03-11T13:48:45;5.60;99.90
16229;DHT22;8222;51.462;12.630;2023-03-11T13:51:19;5.90;99.90
16229;DHT22;8222;51.462;12.630;2023-03-11T13:53:50;5.90;99.90
16229;DHT22;8222;51.462;12.630;2023-03-11T13:56:31;5.90;99.90
16229;DHT22;8222;51.462;12.630;2023-03-11T13:59:32;5.80;99.90
16229;DHT22;8222;51.462;12.630;2023-03-11T14:04:30;6.10;99.90
16229;DHT22;8222;51.462;12.630;2023-03-11T14:06:58;6.00;99.90
16229;DHT22;8222;51.462;12.630;2023-03-11T14:09:26;5.90;99.90
16229;DHT22;8222;51.462;12.630;2023-03-11T14:11:53;5.90;99.90
16229;DHT22;8222;51.462;12.630;2023-03-11T14:17:27;5.90;99.90
16229;DHT22;8222;51.462;12.630;2023-03-11T14:22:32;5.80;99.90
16229;DHT22;8222;51.462;12.630;2023-03-11T14:25:07;6.50;99.90
16229;DHT22;8222;51.462;12.630;2023-03-11T14:27:34;5.50;99.90
16229;DHT22;8222;51.462;12.630;2023-03-11T14:30:03;5.50;99.90
16229;DHT22;8222;51.462;12.630;2023-03-11T14:32:31;5.40;99.90
16229;DHT22;8222;51.462;12.630;2023-03-11T14:34:57;5.60;99.90
16229;DHT22;8222;51.462;12.630;2023-03-11T14:37:33;6.00;99.90
16229;DHT22;8222;51.462;12.630;2023-03-11T14:40:01;5.30;99.90
16229;DHT22;8222;51.462;12.630;2023-03-11T14:42:38;5.40;99.90
16229;DHT22;8222;51.462;12.630;2023-03-11T14:45:14;5.60;99.90
16229;DHT22;8222;51.462;12.630;2023-03-11T14:47:46;5.90;99.90
16229;DHT22;8222;51.462;12.630;2023-03-11T14:50:18;6.10;99.90
16229;DHT22;8222;51.462;12.630;2023-03-11T14:58:40;6.40;99.90
16229;DHT22;8222;51.462;12.630;2023-03-11T15:01:25;6.30;99.90
16229;DHT22;8222;51.462;12.630;2023-03-11T15:06:42;6.30;99.90
16229;DHT22;8222;51.462;12.630;2023-03-11T15:09:15;6.00;99.90
16229;DHT22;8222;51.462;12.630;2023-03-11T15:11:49;5.80;99.90
16229;DHT22;8222;51.462;12.630;2023-03-11T15:14:18;5.80;99.90
16229;DHT22;8222;51.462;12.630;2023-03-11T15:16:44;5.80;99.90
16229;DHT22;8222;51.462;12.630;2023-03-11T15:22:04;6.30;99.90
16229;DHT22;8222;51.462;12.630;2023-03-11T15:24:31;6.10;99.90
16229;DHT22;8222;51.462;12.630;2023-03-11T15:27:15;6.00;99.90
16229;DHT22;8222;51.462;12.630;2023-03-11T15:29:49;6.00;99.90
16229;DHT22;8222;51.462;12.630;2023-03-11T15:32:43;5.70;99.90
16229;DHT22;8222;51.462;12.630;2023-03-11T15:35:20;5.70;99.90
16229;DHT22;8222;51.462;12.630;2023-03-11T15:37:48;5.40;99.90
16229;DHT22;8222;51.462;12.630;2023-03-11T15:42:43;5.20;99.90
16229;DHT22;8222;51.462;12.630;2023-03-11T15:45:12;5.80;99.90
16229;DHT22;8222;51.462;12.630;2023-03-11T15:47:39;5.20;99.90
16229;DHT22;8222;51.462;12.630;2023-03-11T15:50:20;5.10;99.90
16229;DHT22;8222;51.462;12.630;2023-03-11T15:52:49;5.00;99.90
16229;DHT22;8222;51.462;12.630;2023-03-11T15:55:15;4.90;99.90
16229;DHT22;8222;51.462;12.630;2023-03-11T15:57:41;4.70;99.90
16229;DHT22;8222;51.462;12.630;2023-03-11T16:00:18;4.70;99.90
16229;DHT22;8222;51.462;12.630;2023-03-11T16:02:47;4.70;99.90
16229;DHT22;8222;51.462;12.630;2023-03-11T16:05:18;4.70;99.90
16229;DHT22;8222;51.462;12.630;2023-03-11T16:07:47;4.60;99.90
16229;DHT22;8222;51.462;12.630;2023-03-11T16:10:17;4.70;99.90
16229;DHT22;8222;51.462;12.630;2023-03-11T16:12:43;4.70;99.90
16229;DHT22;8222;51.462;12.630;2023-03-11T16:15:22;4.60;99.90
16229;DHT22;8222;51.462;12.630;2023-03-11T16:17:50;4.60;99.90
16229;DHT22;8222;51.462;12.630;2023-03-11T16:20:17;5.40;99.90
16229;DHT22;8222;51.462;12.630;2023-03-11T16:22:44;4.60;99.90
16229;DHT22;8222;51.462;12.630;2023-03-11T16:25:29;4.50;99.90
16229;DHT22;8222;51.462;12.630;2023-03-11T16:27:56;4.40;99.90
16229;DHT22;8222;51.462;12.630;2023-03-11T16:30:23;4.30;99.90
16229;DHT22;8222;51.462;12.630;2023-03-11T16:32:52;4.20;99.90
16229;DHT22;8222;51.462;12.630;2023-03-11T16:35:18;4.10;99.90
16229;DHT22;8222;51.462;12.630;2023-03-11T16:37:44;4.20;99.90
16229;DHT22;8222;51.462;12.630;2023-03-11T16:40:12;4.30;99.90
16229;DHT22;8222;51.462;12.630;2023-03-11T16:42:38;4.40;99.90
16229;DHT22;8222;51.462;12.630;2023-03-11T16:45:04;4.20;99.90
16229;DHT22;8222;51.462;12.630;2023-03-11T16:47:32;4.10;99.90
16229;DHT22;8222;51.462;12.630;2023-03-11T16:49:58;4.00;99.90
16229;DHT22;8222;51.462;12.630;2023-03-11T16:52:23;3.80;99.90
16229;DHT22;8222;51.462;12.630;2023-03-11T16:54:49;3.80;99.90
16229;DHT22;8222;51.462;12.630;2023-03-11T16:57:15;3.80;99.90
16229;DHT22;8222;51.462;12.630;2023-03-11T16:59:41;3.60;99.90
16229;DHT22;8222;51.462;12.630;2023-03-11T17:02:10;4.30;99.90
16229;DHT22;8222;51.462;12.630;2023-03-11T17:04:36;3.60;99.90
16229;DHT22;8222;51.462;12.630;2023-03-11T17:07:03;3.50;99.90
16229;DHT22;8222;51.462;12.630;2023-03-11T17:09:29;3.40;99.90
16229;DHT22;8222;51.462;12.630;2023-03-11T17:11:55;3.40;99.90
16229;DHT22;8222;51.462;12.630;2023-03-11T17:14:21;3.30;99.90
16229;DHT22;8222;51.462;12.630;2023-03-11T17:16:47;3.20;99.90
16229;DHT22;8222;51.462;12.630;2023-03-11T17:19:13;3.10;99.90
16229;DHT22;8222;51.462;12.630;2023-03-11T17:21:38;3.20;99.90
16229;DHT22;8222;51.462;12.630;2023-03-11T17:24:04;3.10;99.90
16229;DHT22;8222;51.462;12.630;2023-03-11T17:26:32;3.00;99.90
16229;DHT22;8222;51.462;12.630;2023-03-11T17:28:58;2.90;99.90
16229;DHT22;8222;51.462;12.630;2023-03-11T17:31:24;2.80;99.90
16229;DHT22;8222;51.462;12.630;2023-03-11T17:33:49;2.80;99.90
16229;DHT22;8222;51.462;12.630;2023-03-11T17:36:16;2.70;99.90
16229;DHT22;8222;51.462;12.630;2023-03-11T17:38:43;2.70;99.90
16229;DHT22;8222;51.462;12.630;2023-03-11T17:41:11;2.70;99.90
16229;DHT22;8222;51.462;12.630;2023-03-11T17:43:40;2.60;99.90
16229;DHT22;8222;51.462;12.630;2023-03-11T17:46:10;2.60;99.90
16229;DHT22;8222;51.462;12.630;2023-03-11T17:48:39;2.50;99.90